sensor_id;sensor_type;location;lat;lon;timestamp;P1;durP1;ratioP1;P2;durP2;ratioP2
74059;SDS011;62414;53.436;8.828;2023-03-08T00:01:01;3.97;;;1.33;;
74059;SDS011;62414;53.436;8.828;2023-03-08T00:03:27;5.30;;;1.48;;
74059;SDS011;62414;53.436;8.828;2023-03-08T00:05:52;6.40;;;1.87;;
74059;SDS011;62414;53.436;8.828;2023-03-08T00:08:18;4.47;;;1.70;;
74059;SDS011;62414;53.436;8.828;2023-03-08T00:10:43;4.90;;;1.90;;
74059;SDS011;62414;53.436;8.828;2023-03-08T00:13:10;5.85;;;2.10;;
74059;SDS011;62414;53.436;8.828;2023-03-08T00:15:36;5.97;;;1.85;;
74059;SDS011;62414;53.436;8.828;2023-03-08T00:18:02;6.10;;;1.70;;
74059;SDS011;62414;53.436;8.828;2023-03-08T00:20:27;5.70;;;1.80;;
74059;SDS011;62414;53.436;8.828;2023-03-08T00:22:53;4.67;;;1.60;;
74059;SDS011;62414;53.436;8.828;2023-03-08T00:25:18;6.40;;;1.70;;
74059;SDS011;62414;53.436;8.828;2023-03-08T00:27:44;6.95;;;2.20;;
74059;SDS011;62414;53.436;8.828;2023-03-08T00:30:11;4.43;;;2.00;;
74059;SDS011;62414;53.436;8.828;2023-03-08T00:32:37;5.05;;;1.98;;
74059;SDS011;62414;53.436;8.828;2023-03-08T00:35:03;6.50;;;2.00;;
74059;SDS011;62414;53.436;8.828;2023-03-08T00:37:29;5.72;;;1.70;;
74059;SDS011;62414;53.436;8.828;2023-03-08T00:39:54;9.13;;;2.00;;
74059;SDS011;62414;53.436;8.828;2023-03-08T00:42:20;6.77;;;2.10;;
74059;SDS011;62414;53.436;8.828;2023-03-08T00:44:46;7.07;;;2.10;;
74059;SDS011;62414;53.436;8.828;2023-03-08T00:47:13;6.00;;;1.90;;
74059;SDS011;62414;53.436;8.828;2023-03-08T00:49:41;6.63;;;2.40;;
74059;SDS011;62414;53.436;8.828;2023-03-08T00:52:06;7.38;;;2.75;;
74059;SDS011;62414;53.436;8.828;2023-03-08T00:54:32;5.63;;;1.80;;
74059;SDS011;62414;53.436;8.828;2023-03-08T00:56:57;9.27;;;2.20;;
74059;SDS011;62414;53.436;8.828;2023-03-08T00:59:23;5.90;;;2.20;;
74059;SDS011;62414;53.436;8.828;2023-03-08T01:01:49;5.20;;;2.10;;
74059;SDS011;62414;53.436;8.828;2023-03-08T01:04:16;6.33;;;1.87;;
74059;SDS011;62414;53.436;8.828;2023-03-08T01:06:41;7.95;;;2.17;;
74059;SDS011;62414;53.436;8.828;2023-03-08T01:09:08;6.20;;;2.22;;
74059;SDS011;62414;53.436;8.828;2023-03-08T01:11:34;6.63;;;2.43;;
74059;SDS011;62414;53.436;8.828;2023-03-08T01:14:00;8.25;;;2.35;;
74059;SDS011;62414;53.436;8.828;2023-03-08T01:16:26;5.60;;;2.40;;
74059;SDS011;62414;53.436;8.828;2023-03-08T01:18:53;6.47;;;2.63;;
74059;SDS011;62414;53.436;8.828;2023-03-08T01:21:20;6.22;;;2.63;;
74059;SDS011;62414;53.436;8.828;2023-03-08T01:23:46;8.80;;;2.90;;
74059;SDS011;62414;53.436;8.828;2023-03-08T01:26:12;9.83;;;3.40;;
74059;SDS011;62414;53.436;8.828;2023-03-08T01:28:39;9.65;;;3.38;;
74059;SDS011;62414;53.436;8.828;2023-03-08T01:31:05;7.57;;;3.43;;
74059;SDS011;62414;53.436;8.828;2023-03-08T01:33:34;7.80;;;3.33;;
74059;SDS011;62414;53.436;8.828;2023-03-08T01:36:01;10.77;;;3.45;;
74059;SDS011;62414;53.436;8.828;2023-03-08T01:38:29;9.63;;;3.30;;
74059;SDS011;62414;53.436;8.828;2023-03-08T01:40:55;9.48;;;4.10;;
74059;SDS011;62414;53.436;8.828;2023-03-08T01:43:22;10.23;;;3.53;;
74059;SDS011;62414;53.436;8.828;2023-03-08T01:46:01;8.13;;;3.58;;
74059;SDS011;62414;53.436;8.828;2023-03-08T01:48:30;7.95;;;3.75;;
74059;SDS011;62414;53.436;8.828;2023-03-08T01:51:01;8.00;;;3.60;;
74059;SDS011;62414;53.436;8.828;2023-03-08T01:53:28;9.02;;;3.85;;
74059;SDS011;62414;53.436;8.828;2023-03-08T01:55:54;8.87;;;3.67;;
74059;SDS011;62414;53.436;8.828;2023-03-08T01:58:20;8.65;;;3.97;;
74059;SDS011;62414;53.436;8.828;2023-03-08T02:00:45;9.57;;;4.07;;
74059;SDS011;62414;53.436;8.828;2023-03-08T02:03:11;9.27;;;4.50;;
74059;SDS011;62414;53.436;8.828;2023-03-08T02:05:37;11.13;;;4.35;;
74059;SDS011;62414;53.436;8.828;2023-03-08T02:08:12;10.15;;;4.75;;
74059;SDS011;62414;53.436;8.828;2023-03-08T02:10:40;12.17;;;5.50;;
74059;SDS011;62414;53.436;8.828;2023-03-08T02:13:06;10.90;;;5.25;;
74059;SDS011;62414;53.436;8.828;2023-03-08T02:15:36;9.50;;;5.28;;
74059;SDS011;62414;53.436;8.828;2023-03-08T02:18:03;8.40;;;4.55;;
74059;SDS011;62414;53.436;8.828;2023-03-08T02:20:30;11.20;;;5.30;;
74059;SDS011;62414;53.436;8.828;2023-03-08T02:23:06;12.43;;;4.90;;
74059;SDS011;62414;53.436;8.828;2023-03-08T02:25:33;15.95;;;5.00;;
74059;SDS011;62414;53.436;8.828;2023-03-08T02:27:58;11.57;;;4.17;;
74059;SDS011;62414;53.436;8.828;2023-03-08T02:30:24;8.88;;;4.00;;
74059;SDS011;62414;53.436;8.828;2023-03-08T02:32:52;12.40;;;4.43;;
74059;SDS011;62414;53.436;8.828;2023-03-08T02:35:17;9.48;;;3.97;;
74059;SDS011;62414;53.436;8.828;2023-03-08T02:37:43;10.17;;;4.37;;
74059;SDS011;62414;53.436;8.828;2023-03-08T02:40:10;11.03;;;4.47;;
74059;SDS011;62414;53.436;8.828;2023-03-08T02:42:36;11.13;;;4.10;;
74059;SDS011;62414;53.436;8.828;2023-03-08T02:45:02;11.13;;;3.70;;
74059;SDS011;62414;53.436;8.828;2023-03-08T02:47:30;10.50;;;3.97;;
74059;SDS011;62414;53.436;8.828;2023-03-08T02:49:56;9.80;;;4.03;;
74059;SDS011;62414;53.436;8.828;2023-03-08T02:52:22;8.20;;;4.00;;
74059;SDS011;62414;53.436;8.828;2023-03-08T02:54:49;11.02;;;4.50;;
74059;SDS011;62414;53.436;8.828;2023-03-08T02:57:16;11.40;;;4.33;;
74059;SDS011;62414;53.436;8.828;2023-03-08T02:59:43;11.27;;;4.00;;
74059;SDS011;62414;53.436;8.828;2023-03-08T03:02:09;10.18;;;4.20;;
74059;SDS011;62414;53.436;8.828;2023-03-08T03:04:34;8.80;;;3.97;;
74059;SDS011;62414;53.436;8.828;2023-03-08T03:07:00;10.95;;;4.22;;
74059;SDS011;62414;53.436;8.828;2023-03-08T03:09:26;9.23;;;4.00;;
74059;SDS011;62414;53.436;8.828;2023-03-08T03:11:53;8.77;;;4.10;;
74059;SDS011;62414;53.436;8.828;2023-03-08T03:14:19;9.97;;;4.33;;
74059;SDS011;62414;53.436;8.828;2023-03-08T03:16:45;10.35;;;4.55;;
74059;SDS011;62414;53.436;8.828;2023-03-08T03:19:11;10.87;;;4.27;;
74059;SDS011;62414;53.436;8.828;2023-03-08T03:21:37;10.25;;;4.45;;
74059;SDS011;62414;53.436;8.828;2023-03-08T03:24:02;11.37;;;4.40;;
74059;SDS011;62414;53.436;8.828;2023-03-08T03:26:34;11.10;;;4.80;;
74059;SDS011;62414;53.436;8.828;2023-03-08T03:29:00;9.53;;;4.20;;
74059;SDS011;62414;53.436;8.828;2023-03-08T03:31:31;10.35;;;4.68;;
74059;SDS011;62414;53.436;8.828;2023-03-08T03:33:56;9.25;;;4.57;;
74059;SDS011;62414;53.436;8.828;2023-03-08T03:36:24;8.38;;;4.72;;
74059;SDS011;62414;53.436;8.828;2023-03-08T03:38:50;10.53;;;5.17;;
74059;SDS011;62414;53.436;8.828;2023-03-08T03:41:17;12.45;;;5.22;;
74059;SDS011;62414;53.436;8.828;2023-03-08T03:43:44;10.35;;;5.38;;
74059;SDS011;62414;53.436;8.828;2023-03-08T03:46:11;10.45;;;5.50;;
74059;SDS011;62414;53.436;8.828;2023-03-08T03:48:40;10.88;;;5.20;;
74059;SDS011;62414;53.436;8.828;2023-03-08T03:51:06;11.97;;;5.37;;
74059;SDS011;62414;53.436;8.828;2023-03-08T03:53:34;10.75;;;5.00;;
74059;SDS011;62414;53.436;8.828;2023-03-08T03:56:02;12.63;;;6.30;;
74059;SDS011;62414;53.436;8.828;2023-03-08T03:58:28;11.55;;;5.45;;
74059;SDS011;62414;53.436;8.828;2023-03-08T04:00:54;12.37;;;5.73;;
74059;SDS011;62414;53.436;8.828;2023-03-08T04:03:27;13.73;;;5.70;;
74059;SDS011;62414;53.436;8.828;2023-03-08T04:05:54;11.43;;;5.83;;
74059;SDS011;62414;53.436;8.828;2023-03-08T04:08:29;12.20;;;6.30;;
74059;SDS011;62414;53.436;8.828;2023-03-08T04:10:58;12.23;;;6.57;;
74059;SDS011;62414;53.436;8.828;2023-03-08T04:13:24;11.57;;;6.20;;
74059;SDS011;62414;53.436;8.828;2023-03-08T04:15:50;12.68;;;6.45;;
74059;SDS011;62414;53.436;8.828;2023-03-08T04:18:16;13.57;;;6.87;;
74059;SDS011;62414;53.436;8.828;2023-03-08T04:20:44;14.80;;;6.95;;
74059;SDS011;62414;53.436;8.828;2023-03-08T04:23:11;14.20;;;6.87;;
74059;SDS011;62414;53.436;8.828;2023-03-08T04:25:40;15.02;;;6.95;;
74059;SDS011;62414;53.436;8.828;2023-03-08T04:28:08;15.30;;;7.03;;
74059;SDS011;62414;53.436;8.828;2023-03-08T04:30:33;15.70;;;7.47;;
74059;SDS011;62414;53.436;8.828;2023-03-08T04:33:00;17.40;;;7.90;;
74059;SDS011;62414;53.436;8.828;2023-03-08T04:35:34;18.15;;;7.55;;
74059;SDS011;62414;53.436;8.828;2023-03-08T04:38:01;16.88;;;7.80;;
74059;SDS011;62414;53.436;8.828;2023-03-08T04:40:28;18.80;;;7.83;;
74059;SDS011;62414;53.436;8.828;2023-03-08T04:42:56;16.20;;;7.57;;
74059;SDS011;62414;53.436;8.828;2023-03-08T04:45:28;17.27;;;8.23;;
74059;SDS011;62414;53.436;8.828;2023-03-08T04:47:57;17.38;;;7.65;;
74059;SDS011;62414;53.436;8.828;2023-03-08T04:50:23;17.20;;;7.87;;
74059;SDS011;62414;53.436;8.828;2023-03-08T04:52:49;360.00;;;29.92;;
74059;SDS011;62414;53.436;8.828;2023-03-08T04:55:15;20.70;;;8.60;;
74059;SDS011;62414;53.436;8.828;2023-03-08T04:57:42;21.63;;;8.70;;
74059;SDS011;62414;53.436;8.828;2023-03-08T05:00:08;18.50;;;8.02;;
74059;SDS011;62414;53.436;8.828;2023-03-08T05:02:37;19.63;;;8.47;;
74059;SDS011;62414;53.436;8.828;2023-03-08T05:05:07;19.48;;;8.93;;
74059;SDS011;62414;53.436;8.828;2023-03-08T05:07:33;21.90;;;9.27;;
74059;SDS011;62414;53.436;8.828;2023-03-08T05:10:00;22.48;;;9.48;;
74059;SDS011;62414;53.436;8.828;2023-03-08T05:12:26;21.80;;;9.10;;
74059;SDS011;62414;53.436;8.828;2023-03-08T05:14:56;22.75;;;9.02;;
74059;SDS011;62414;53.436;8.828;2023-03-08T05:17:25;21.13;;;9.00;;
74059;SDS011;62414;53.436;8.828;2023-03-08T05:19:51;23.83;;;9.52;;
74059;SDS011;62414;53.436;8.828;2023-03-08T05:22:23;25.13;;;9.07;;
74059;SDS011;62414;53.436;8.828;2023-03-08T05:24:50;22.83;;;9.43;;
74059;SDS011;62414;53.436;8.828;2023-03-08T05:27:16;23.20;;;9.52;;
74059;SDS011;62414;53.436;8.828;2023-03-08T05:29:43;24.75;;;9.77;;
74059;SDS011;62414;53.436;8.828;2023-03-08T05:32:11;25.80;;;10.50;;
74059;SDS011;62414;53.436;8.828;2023-03-08T05:34:38;25.40;;;10.18;;
74059;SDS011;62414;53.436;8.828;2023-03-08T05:37:06;25.52;;;9.57;;
74059;SDS011;62414;53.436;8.828;2023-03-08T05:39:34;25.00;;;10.40;;
74059;SDS011;62414;53.436;8.828;2023-03-08T05:42:08;26.37;;;10.30;;
74059;SDS011;62414;53.436;8.828;2023-03-08T05:44:38;23.17;;;9.02;;
74059;SDS011;62414;53.436;8.828;2023-03-08T05:47:05;22.48;;;9.02;;
74059;SDS011;62414;53.436;8.828;2023-03-08T05:49:31;25.97;;;10.10;;
74059;SDS011;62414;53.436;8.828;2023-03-08T05:51:58;25.65;;;10.73;;
74059;SDS011;62414;53.436;8.828;2023-03-08T05:54:25;25.88;;;10.75;;
74059;SDS011;62414;53.436;8.828;2023-03-08T05:56:54;22.90;;;9.38;;
74059;SDS011;62414;53.436;8.828;2023-03-08T05:59:27;24.08;;;10.05;;
74059;SDS011;62414;53.436;8.828;2023-03-08T06:01:56;24.57;;;9.33;;
74059;SDS011;62414;53.436;8.828;2023-03-08T06:04:32;27.55;;;10.32;;
74059;SDS011;62414;53.436;8.828;2023-03-08T06:06:58;25.40;;;9.40;;
74059;SDS011;62414;53.436;8.828;2023-03-08T06:09:30;27.15;;;9.73;;
74059;SDS011;62414;53.436;8.828;2023-03-08T06:11:56;27.00;;;10.87;;
74059;SDS011;62414;53.436;8.828;2023-03-08T06:14:22;28.98;;;10.00;;
74059;SDS011;62414;53.436;8.828;2023-03-08T06:16:48;27.73;;;10.75;;
74059;SDS011;62414;53.436;8.828;2023-03-08T06:19:16;26.60;;;10.45;;
74059;SDS011;62414;53.436;8.828;2023-03-08T06:21:44;28.23;;;10.07;;
74059;SDS011;62414;53.436;8.828;2023-03-08T06:24:10;29.60;;;10.77;;
74059;SDS011;62414;53.436;8.828;2023-03-08T06:26:36;27.90;;;10.55;;
74059;SDS011;62414;53.436;8.828;2023-03-08T06:29:02;26.03;;;9.80;;
74059;SDS011;62414;53.436;8.828;2023-03-08T06:31:29;26.33;;;10.32;;
74059;SDS011;62414;53.436;8.828;2023-03-08T06:33:55;27.33;;;10.20;;
74059;SDS011;62414;53.436;8.828;2023-03-08T06:36:24;22.58;;;9.90;;
74059;SDS011;62414;53.436;8.828;2023-03-08T06:38:51;27.90;;;10.20;;
74059;SDS011;62414;53.436;8.828;2023-03-08T06:41:16;36.78;;;11.63;;
74059;SDS011;62414;53.436;8.828;2023-03-08T06:43:46;29.20;;;10.90;;
74059;SDS011;62414;53.436;8.828;2023-03-08T06:46:12;26.50;;;10.40;;
74059;SDS011;62414;53.436;8.828;2023-03-08T06:48:38;27.17;;;11.27;;
74059;SDS011;62414;53.436;8.828;2023-03-08T06:51:05;25.52;;;10.10;;
74059;SDS011;62414;53.436;8.828;2023-03-08T06:53:30;28.23;;;11.23;;
74059;SDS011;62414;53.436;8.828;2023-03-08T06:56:03;23.42;;;10.38;;
74059;SDS011;62414;53.436;8.828;2023-03-08T06:58:31;25.63;;;10.50;;
74059;SDS011;62414;53.436;8.828;2023-03-08T07:00:56;28.13;;;10.53;;
74059;SDS011;62414;53.436;8.828;2023-03-08T07:03:22;27.50;;;10.53;;
74059;SDS011;62414;53.436;8.828;2023-03-08T07:05:48;25.60;;;10.40;;
74059;SDS011;62414;53.436;8.828;2023-03-08T07:08:13;26.58;;;10.52;;
74059;SDS011;62414;53.436;8.828;2023-03-08T07:10:39;26.20;;;10.17;;
74059;SDS011;62414;53.436;8.828;2023-03-08T07:13:05;25.47;;;10.17;;
74059;SDS011;62414;53.436;8.828;2023-03-08T07:15:31;23.30;;;9.80;;
74059;SDS011;62414;53.436;8.828;2023-03-08T07:17:56;27.33;;;9.53;;
74059;SDS011;62414;53.436;8.828;2023-03-08T07:20:22;22.27;;;9.15;;
74059;SDS011;62414;53.436;8.828;2023-03-08T07:22:49;27.23;;;10.25;;
74059;SDS011;62414;53.436;8.828;2023-03-08T07:25:16;26.97;;;10.20;;
74059;SDS011;62414;53.436;8.828;2023-03-08T07:27:42;25.98;;;9.98;;
74059;SDS011;62414;53.436;8.828;2023-03-08T07:30:10;32.88;;;10.85;;
74059;SDS011;62414;53.436;8.828;2023-03-08T07:32:37;21.73;;;9.35;;
74059;SDS011;62414;53.436;8.828;2023-03-08T07:35:02;24.53;;;9.93;;
74059;SDS011;62414;53.436;8.828;2023-03-08T07:37:28;21.90;;;9.45;;
74059;SDS011;62414;53.436;8.828;2023-03-08T07:39:54;21.77;;;10.03;;
74059;SDS011;62414;53.436;8.828;2023-03-08T07:42:19;25.05;;;10.02;;
74059;SDS011;62414;53.436;8.828;2023-03-08T07:44:50;24.43;;;10.03;;
74059;SDS011;62414;53.436;8.828;2023-03-08T07:47:17;27.00;;;10.98;;
74059;SDS011;62414;53.436;8.828;2023-03-08T07:49:43;22.48;;;9.93;;
74059;SDS011;62414;53.436;8.828;2023-03-08T07:52:08;24.13;;;10.03;;
74059;SDS011;62414;53.436;8.828;2023-03-08T07:54:34;24.17;;;10.40;;
74059;SDS011;62414;53.436;8.828;2023-03-08T07:56:59;24.63;;;10.40;;
74059;SDS011;62414;53.436;8.828;2023-03-08T07:59:24;20.70;;;8.93;;
74059;SDS011;62414;53.436;8.828;2023-03-08T08:01:50;20.93;;;8.90;;
74059;SDS011;62414;53.436;8.828;2023-03-08T08:04:17;26.67;;;9.97;;
74059;SDS011;62414;53.436;8.828;2023-03-08T08:06:42;24.30;;;10.03;;
74059;SDS011;62414;53.436;8.828;2023-03-08T08:09:08;23.48;;;8.93;;
74059;SDS011;62414;53.436;8.828;2023-03-08T08:11:36;20.80;;;8.85;;
74059;SDS011;62414;53.436;8.828;2023-03-08T08:14:02;20.67;;;9.77;;
74059;SDS011;62414;53.436;8.828;2023-03-08T08:16:28;22.35;;;9.20;;
74059;SDS011;62414;53.436;8.828;2023-03-08T08:18:53;22.93;;;9.50;;
74059;SDS011;62414;53.436;8.828;2023-03-08T08:21:20;20.57;;;8.67;;
74059;SDS011;62414;53.436;8.828;2023-03-08T08:23:46;23.02;;;9.50;;
74059;SDS011;62414;53.436;8.828;2023-03-08T08:26:12;548.20;;;41.30;;
74059;SDS011;62414;53.436;8.828;2023-03-08T08:28:39;31.20;;;9.97;;
74059;SDS011;62414;53.436;8.828;2023-03-08T08:31:05;22.23;;;9.20;;
74059;SDS011;62414;53.436;8.828;2023-03-08T08:33:32;22.55;;;9.35;;
74059;SDS011;62414;53.436;8.828;2023-03-08T08:35:58;18.50;;;8.68;;
74059;SDS011;62414;53.436;8.828;2023-03-08T08:38:25;21.30;;;9.73;;
74059;SDS011;62414;53.436;8.828;2023-03-08T08:40:51;23.40;;;9.68;;
74059;SDS011;62414;53.436;8.828;2023-03-08T08:43:16;22.38;;;9.13;;
74059;SDS011;62414;53.436;8.828;2023-03-08T08:45:42;22.00;;;9.10;;
74059;SDS011;62414;53.436;8.828;2023-03-08T08:48:08;22.92;;;9.38;;
74059;SDS011;62414;53.436;8.828;2023-03-08T08:50:34;19.43;;;8.90;;
74059;SDS011;62414;53.436;8.828;2023-03-08T08:53:01;19.45;;;8.63;;
74059;SDS011;62414;53.436;8.828;2023-03-08T08:55:27;19.00;;;8.57;;
74059;SDS011;62414;53.436;8.828;2023-03-08T08:57:53;20.50;;;8.53;;
74059;SDS011;62414;53.436;8.828;2023-03-08T09:00:18;17.10;;;8.25;;
74059;SDS011;62414;53.436;8.828;2023-03-08T09:02:44;21.37;;;9.03;;
74059;SDS011;62414;53.436;8.828;2023-03-08T09:05:09;18.80;;;8.30;;
74059;SDS011;62414;53.436;8.828;2023-03-08T09:07:35;18.40;;;8.53;;
74059;SDS011;62414;53.436;8.828;2023-03-08T09:10:00;19.43;;;8.33;;
74059;SDS011;62414;53.436;8.828;2023-03-08T09:12:28;47.83;;;9.60;;
74059;SDS011;62414;53.436;8.828;2023-03-08T09:14:54;19.17;;;8.52;;
74059;SDS011;62414;53.436;8.828;2023-03-08T09:17:20;19.87;;;8.63;;
74059;SDS011;62414;53.436;8.828;2023-03-08T09:19:45;18.42;;;8.60;;
74059;SDS011;62414;53.436;8.828;2023-03-08T09:22:11;17.00;;;8.23;;
74059;SDS011;62414;53.436;8.828;2023-03-08T09:24:36;19.23;;;8.67;;
74059;SDS011;62414;53.436;8.828;2023-03-08T09:27:03;18.13;;;8.38;;
74059;SDS011;62414;53.436;8.828;2023-03-08T09:29:30;18.50;;;9.07;;
74059;SDS011;62414;53.436;8.828;2023-03-08T09:31:55;20.75;;;8.80;;
74059;SDS011;62414;53.436;8.828;2023-03-08T09:34:21;18.80;;;8.87;;
74059;SDS011;62414;53.436;8.828;2023-03-08T09:36:46;19.27;;;8.70;;
74059;SDS011;62414;53.436;8.828;2023-03-08T09:39:12;19.93;;;8.43;;
74059;SDS011;62414;53.436;8.828;2023-03-08T09:41:40;18.40;;;9.17;;
74059;SDS011;62414;53.436;8.828;2023-03-08T09:44:12;19.55;;;8.05;;
74059;SDS011;62414;53.436;8.828;2023-03-08T09:46:43;20.10;;;8.27;;
74059;SDS011;62414;53.436;8.828;2023-03-08T09:49:11;20.92;;;8.23;;
74059;SDS011;62414;53.436;8.828;2023-03-08T09:51:39;20.40;;;8.45;;
74059;SDS011;62414;53.436;8.828;2023-03-08T09:54:08;21.57;;;8.50;;
74059;SDS011;62414;53.436;8.828;2023-03-08T09:56:38;20.88;;;8.48;;
74059;SDS011;62414;53.436;8.828;2023-03-08T09:59:09;20.75;;;8.80;;
74059;SDS011;62414;53.436;8.828;2023-03-08T10:01:37;25.13;;;9.35;;
74059;SDS011;62414;53.436;8.828;2023-03-08T10:04:13;20.30;;;9.02;;
74059;SDS011;62414;53.436;8.828;2023-03-08T10:06:45;210.37;;;18.50;;
74059;SDS011;62414;53.436;8.828;2023-03-08T10:09:20;22.35;;;9.27;;
74059;SDS011;62414;53.436;8.828;2023-03-08T10:11:50;21.58;;;8.80;;
74059;SDS011;62414;53.436;8.828;2023-03-08T10:14:19;21.95;;;9.05;;
74059;SDS011;62414;53.436;8.828;2023-03-08T10:16:48;23.90;;;9.18;;
74059;SDS011;62414;53.436;8.828;2023-03-08T10:19:16;24.57;;;9.80;;
74059;SDS011;62414;53.436;8.828;2023-03-08T10:21:44;25.25;;;10.05;;
74059;SDS011;62414;53.436;8.828;2023-03-08T10:24:13;27.27;;;10.50;;
74059;SDS011;62414;53.436;8.828;2023-03-08T10:26:40;27.08;;;9.95;;
74059;SDS011;62414;53.436;8.828;2023-03-08T10:29:07;21.95;;;9.05;;
74059;SDS011;62414;53.436;8.828;2023-03-08T10:31:33;22.23;;;9.10;;
74059;SDS011;62414;53.436;8.828;2023-03-08T10:34:02;25.15;;;9.63;;
74059;SDS011;62414;53.436;8.828;2023-03-08T10:36:30;23.03;;;8.87;;
74059;SDS011;62414;53.436;8.828;2023-03-08T10:38:57;20.45;;;8.25;;
74059;SDS011;62414;53.436;8.828;2023-03-08T10:41:24;22.23;;;9.23;;
74059;SDS011;62414;53.436;8.828;2023-03-08T10:43:50;23.73;;;9.37;;
74059;SDS011;62414;53.436;8.828;2023-03-08T10:46:17;22.55;;;8.80;;
74059;SDS011;62414;53.436;8.828;2023-03-08T10:48:43;21.97;;;8.93;;
74059;SDS011;62414;53.436;8.828;2023-03-08T10:51:16;21.60;;;8.35;;
74059;SDS011;62414;53.436;8.828;2023-03-08T10:53:51;21.95;;;8.13;;
74059;SDS011;62414;53.436;8.828;2023-03-08T10:56:19;23.67;;;9.60;;
74059;SDS011;62414;53.436;8.828;2023-03-08T10:58:48;26.60;;;10.52;;
74059;SDS011;62414;53.436;8.828;2023-03-08T11:01:22;25.17;;;9.30;;
74059;SDS011;62414;53.436;8.828;2023-03-08T11:03:56;28.77;;;11.02;;
74059;SDS011;62414;53.436;8.828;2023-03-08T11:06:23;28.77;;;11.33;;
74059;SDS011;62414;53.436;8.828;2023-03-08T11:08:53;239.05;;;20.75;;
74059;SDS011;62414;53.436;8.828;2023-03-08T11:11:19;26.05;;;10.75;;
74059;SDS011;62414;53.436;8.828;2023-03-08T11:13:45;32.55;;;11.55;;
74059;SDS011;62414;53.436;8.828;2023-03-08T11:16:33;26.30;;;10.47;;
74059;SDS011;62414;53.436;8.828;2023-03-08T11:19:13;23.52;;;9.60;;
74059;SDS011;62414;53.436;8.828;2023-03-08T11:21:49;22.80;;;9.05;;
74059;SDS011;62414;53.436;8.828;2023-03-08T11:24:22;20.45;;;8.50;;
74059;SDS011;62414;53.436;8.828;2023-03-08T11:26:59;21.38;;;7.93;;
74059;SDS011;62414;53.436;8.828;2023-03-08T11:29:38;23.43;;;9.30;;
74059;SDS011;62414;53.436;8.828;2023-03-08T11:32:11;25.60;;;9.80;;
74059;SDS011;62414;53.436;8.828;2023-03-08T11:34:55;25.98;;;10.25;;
74059;SDS011;62414;53.436;8.828;2023-03-08T11:37:29;25.00;;;9.60;;
74059;SDS011;62414;53.436;8.828;2023-03-08T11:40:00;31.35;;;11.43;;
74059;SDS011;62414;53.436;8.828;2023-03-08T11:42:28;29.17;;;10.70;;
74059;SDS011;62414;53.436;8.828;2023-03-08T11:47:50;35.38;;;13.10;;
74059;SDS011;62414;53.436;8.828;2023-03-08T11:50:22;33.67;;;11.40;;
74059;SDS011;62414;53.436;8.828;2023-03-08T11:52:52;37.83;;;12.48;;
74059;SDS011;62414;53.436;8.828;2023-03-08T11:55:30;36.37;;;12.50;;
74059;SDS011;62414;53.436;8.828;2023-03-08T11:58:01;36.15;;;12.40;;
74059;SDS011;62414;53.436;8.828;2023-03-08T12:00:34;30.30;;;11.18;;
74059;SDS011;62414;53.436;8.828;2023-03-08T12:03:03;29.25;;;10.63;;
74059;SDS011;62414;53.436;8.828;2023-03-08T12:05:31;34.00;;;11.55;;
74059;SDS011;62414;53.436;8.828;2023-03-08T12:08:01;30.97;;;11.40;;
74059;SDS011;62414;53.436;8.828;2023-03-08T12:10:27;29.42;;;10.82;;
74059;SDS011;62414;53.436;8.828;2023-03-08T12:12:56;31.50;;;11.23;;
74059;SDS011;62414;53.436;8.828;2023-03-08T12:15:25;32.85;;;11.82;;
74059;SDS011;62414;53.436;8.828;2023-03-08T12:17:53;32.95;;;11.70;;
74059;SDS011;62414;53.436;8.828;2023-03-08T12:20:21;38.53;;;13.57;;
74059;SDS011;62414;53.436;8.828;2023-03-08T12:22:48;28.80;;;10.73;;
74059;SDS011;62414;53.436;8.828;2023-03-08T12:25:25;26.08;;;10.18;;
74059;SDS011;62414;53.436;8.828;2023-03-08T12:27:53;26.70;;;9.60;;
74059;SDS011;62414;53.436;8.828;2023-03-08T12:30:22;25.20;;;9.50;;
74059;SDS011;62414;53.436;8.828;2023-03-08T12:32:53;27.30;;;9.50;;
74059;SDS011;62414;53.436;8.828;2023-03-08T12:35:26;26.92;;;10.80;;
74059;SDS011;62414;53.436;8.828;2023-03-08T12:37:54;23.73;;;8.80;;
74059;SDS011;62414;53.436;8.828;2023-03-08T12:40:29;22.65;;;8.00;;
74059;SDS011;62414;53.436;8.828;2023-03-08T12:43:03;19.43;;;8.10;;
74059;SDS011;62414;53.436;8.828;2023-03-08T12:45:30;19.05;;;7.47;;
74059;SDS011;62414;53.436;8.828;2023-03-08T12:47:57;478.30;;;22.90;;
74059;SDS011;62414;53.436;8.828;2023-03-08T12:50:26;16.58;;;7.05;;
74059;SDS011;62414;53.436;8.828;2023-03-08T12:52:52;16.17;;;6.63;;
74059;SDS011;62414;53.436;8.828;2023-03-08T12:55:18;19.08;;;7.50;;
74059;SDS011;62414;53.436;8.828;2023-03-08T12:57:47;16.48;;;6.32;;
74059;SDS011;62414;53.436;8.828;2023-03-08T13:00:24;16.37;;;7.00;;
74059;SDS011;62414;53.436;8.828;2023-03-08T13:02:59;16.23;;;6.15;;
74059;SDS011;62414;53.436;8.828;2023-03-08T13:05:30;16.90;;;6.88;;
74059;SDS011;62414;53.436;8.828;2023-03-08T13:08:01;15.60;;;6.13;;
74059;SDS011;62414;53.436;8.828;2023-03-08T13:10:31;13.85;;;5.70;;
74059;SDS011;62414;53.436;8.828;2023-03-08T13:13:03;15.27;;;6.50;;
74059;SDS011;62414;53.436;8.828;2023-03-08T13:15:41;13.18;;;5.05;;
74059;SDS011;62414;53.436;8.828;2023-03-08T13:18:10;12.07;;;5.22;;
74059;SDS011;62414;53.436;8.828;2023-03-08T13:20:46;16.17;;;6.97;;
74059;SDS011;62414;53.436;8.828;2023-03-08T13:23:19;14.02;;;5.60;;
74059;SDS011;62414;53.436;8.828;2023-03-08T13:25:51;13.52;;;4.80;;
74059;SDS011;62414;53.436;8.828;2023-03-08T13:28:25;11.32;;;4.57;;
74059;SDS011;62414;53.436;8.828;2023-03-08T13:30:52;14.13;;;4.93;;
74059;SDS011;62414;53.436;8.828;2023-03-08T13:33:20;13.73;;;4.80;;
74059;SDS011;62414;53.436;8.828;2023-03-08T13:35:57;11.35;;;4.55;;
74059;SDS011;62414;53.436;8.828;2023-03-08T13:38:26;12.38;;;4.65;;
74059;SDS011;62414;53.436;8.828;2023-03-08T13:40:53;11.73;;;4.38;;
74059;SDS011;62414;53.436;8.828;2023-03-08T13:43:20;13.38;;;4.78;;
74059;SDS011;62414;53.436;8.828;2023-03-08T13:45:47;10.63;;;4.00;;
74059;SDS011;62414;53.436;8.828;2023-03-08T13:48:13;10.57;;;4.22;;
74059;SDS011;62414;53.436;8.828;2023-03-08T13:50:40;11.57;;;4.50;;
74059;SDS011;62414;53.436;8.828;2023-03-08T13:53:07;10.75;;;4.55;;
74059;SDS011;62414;53.436;8.828;2023-03-08T13:55:35;9.60;;;3.90;;
74059;SDS011;62414;53.436;8.828;2023-03-08T13:58:03;10.20;;;4.22;;
74059;SDS011;62414;53.436;8.828;2023-03-08T14:00:29;8.83;;;3.80;;
74059;SDS011;62414;53.436;8.828;2023-03-08T14:02:56;9.70;;;3.60;;
74059;SDS011;62414;53.436;8.828;2023-03-08T14:05:24;8.60;;;3.20;;
74059;SDS011;62414;53.436;8.828;2023-03-08T14:07:57;8.13;;;3.45;;
74059;SDS011;62414;53.436;8.828;2023-03-08T14:10:24;8.38;;;3.00;;
74059;SDS011;62414;53.436;8.828;2023-03-08T14:12:54;8.17;;;3.37;;
74059;SDS011;62414;53.436;8.828;2023-03-08T14:15:20;7.72;;;3.00;;
74059;SDS011;62414;53.436;8.828;2023-03-08T14:17:45;6.83;;;2.80;;
74059;SDS011;62414;53.436;8.828;2023-03-08T14:20:17;7.28;;;2.90;;
74059;SDS011;62414;53.436;8.828;2023-03-08T14:22:45;6.63;;;2.50;;
74059;SDS011;62414;53.436;8.828;2023-03-08T14:25:19;7.00;;;2.75;;
74059;SDS011;62414;53.436;8.828;2023-03-08T14:27:46;8.87;;;3.27;;
74059;SDS011;62414;53.436;8.828;2023-03-08T14:30:13;7.68;;;3.10;;
74059;SDS011;62414;53.436;8.828;2023-03-08T14:32:39;7.80;;;2.70;;
74059;SDS011;62414;53.436;8.828;2023-03-08T14:35:06;6.80;;;2.78;;
74059;SDS011;62414;53.436;8.828;2023-03-08T14:37:42;7.25;;;2.53;;
74059;SDS011;62414;53.436;8.828;2023-03-08T14:40:17;6.68;;;2.30;;